Newton Highlands, MA (02461)

11:53 PM EST on January 18, 2017 (GMT -0500)
Waban/NewtonHighlands | | Change Station
Active Advisory: Freezing Rain Advisory

Elev 164 ft 42.32 °N, 71.22 °W | Updated 42 seconds ago

Overcast
Overcast
32.4 °F
Feels Like 32 °F
N
0.0
Wind Variable Wind from WNW
Gusts 1.0 mph

Today
High -- | Low -- °F
--% Chance of Precip.
Yesterday
High -- | Low -- °F
Precip. -- in
Pressure 30.03 in
Visibility 6.0 miles
Clouds Overcast 500 ft
Windchill 32 °F
Dew Point 31 °F
Humidity 96%
Rainfall 0.30 in
Snow Depth Not available.
7:09 AM 4:41 PM
Waning Gibbous, 57% visible
METAR KOWD 190353Z AUTO 33006KT 6SM BR OVC005 01/01 A3002 RMK AO2 SLP167 T00110006
Pressure 30.03 in
Visibility 6.0 miles
Clouds Overcast 500 ft
Windchill 32 °F
Dew Point 31 °F
Humidity 96%
Rainfall 0.30 in
Snow Depth Not available.
7:09 AM 4:41 PM
Waning Gibbous, 57% visible
METAR KOWD 190353Z AUTO 33006KT 6SM BR OVC005 01/01 A3002 RMK AO2 SLP167 T00110006

Get Your Daily Forecast Email!

Thanks for signing up!

Be on the lookout for a verification email in your inbox.

You'll start receiving the daily forecast at 8 AM.

×

10-Day Weather Forecast

Almanac

Astronomy

Jan. 18, 2017 Rise Set
Actual Time
Civil Twilight
Nautical Twilight
Astronomical Twilight
Moon
Length of Visible Light
Length of Day
Tomorrow will be .
, % of the Moon is Illuminated

Today's Extremes

State Highs State Lows

Community

WunderPhotos

Upload Photos

1,962,540 photos uploaded!

WunderBlog® & News

Nearby

Air Quality

  Air Quality AQ Index Pollutant
Not available.

Snow Depth

Station Depth Elevation

Earthquake Activity

City Distance Mag. Time & Date
Minimum magnitude displayed is 2.5.

Coastal Water Temperatures

Place Temperature

Stations

Nearby Weather Stations

Station Location Temp. Windchill Dew Point Humidity Wind Precip. Elev Updated Type
                   

Watches & Warnings

Freezing Rain Advisory
Issued: 9:28 PM EST Jan. 18, 2017 – National Weather Service

... Freezing Drizzle Advisory in effect until midnight tonight...

The National Weather Service in Taunton has issued a Freezing
Drizzle Advisory... which is in effect until midnight tonight.

* Locations... include eastern Essex and southeast Middlesex County
Massachusetts.

* Hazard types... freezing drizzle... including the additional
threat of developing black ice.

* Timing... through midnight tonight.

* Impacts... areas of freezing drizzle will likely result in
hazardous travel conditions on untreated roads... especially
bridges and overpasses. Parking lots and sidewalks will become
slippery as well.

Precautionary/preparedness actions...

A Freezing Drizzle Advisory means that periods of freezing
drizzle will cause travel difficulties. Be prepared for slippery
roads. Slow down and use caution while driving.